SHT3G EGCC-EGLL
Flight info
| Callsign | SHT3G |
|---|---|
| Flight time | 0h 33m |
| Altitude | 19000 |
| Route | LISTO L612 HON |
| Aircraft | A320/M-SDE3FGHIRWY/LB1 |
Departure
| Time | 2026-05-04 12:16 |
|---|---|
| Airport | Manchester Airport (EGCC) |
Arrival
| Time | 2026-05-04 12:49 |
|---|---|
| Airport | London Heathrow Airport (EGLL) |
| Time | Latitude | Longitude | Altitude | Speed | Heading |
|---|---|---|---|---|---|
| 2026-05-04 11:37 | 53.36949 | -2.28697 | 233 ft | 0 kts | 135° |
| 2026-05-04 12:00 | 53.36955 | -2.28706 | 233 ft | 3 kts | 135° |
| 2026-05-04 12:00 | 53.36971 | -2.28730 | 236 ft | 4 kts | 160° |
| 2026-05-04 12:01 | 53.36994 | -2.28730 | 233 ft | 4 kts | 217° |
| 2026-05-04 12:01 | 53.36997 | -2.28726 | 234 ft | 4 kts | 225° |
| 2026-05-04 12:02 | 53.36959 | -2.28789 | 233 ft | 0 kts | 225° |
| 2026-05-04 12:06 | 53.36945 | -2.28813 | 234 ft | 6 kts | 225° |
| 2026-05-04 12:06 | 53.36895 | -2.28896 | 233 ft | 12 kts | 225° |
| 2026-05-04 12:06 | 53.36824 | -2.29005 | 233 ft | 15 kts | 212° |
| 2026-05-04 12:07 | 53.36769 | -2.29043 | 233 ft | 11 kts | 193° |
| 2026-05-04 12:07 | 53.36703 | -2.28969 | 233 ft | 13 kts | 135° |
| 2026-05-04 12:07 | 53.36627 | -2.28882 | 234 ft | 14 kts | 149° |
| 2026-05-04 12:07 | 53.36570 | -2.28735 | 234 ft | 17 kts | 124° |
| 2026-05-04 12:08 | 53.36464 | -2.28551 | 233 ft | 14 kts | 134° |
| 2026-05-04 12:08 | 53.36423 | -2.28496 | 233 ft | 11 kts | 161° |
| 2026-05-04 12:08 | 53.36318 | -2.28462 | 233 ft | 15 kts | 135° |
| 2026-05-04 12:08 | 53.36267 | -2.28372 | 233 ft | 17 kts | 134° |
| 2026-05-04 12:09 | 53.36178 | -2.28218 | 233 ft | 20 kts | 134° |
| 2026-05-04 12:09 | 53.36084 | -2.28056 | 233 ft | 15 kts | 134° |
| 2026-05-04 12:09 | 53.36024 | -2.27956 | 233 ft | 12 kts | 135° |
| 2026-05-04 12:09 | 53.35954 | -2.27857 | 234 ft | 15 kts | 160° |
| 2026-05-04 12:10 | 53.35839 | -2.27859 | 233 ft | 18 kts | 185° |
| 2026-05-04 12:10 | 53.35709 | -2.27882 | 233 ft | 18 kts | 185° |
| 2026-05-04 12:10 | 53.35613 | -2.27926 | 233 ft | 14 kts | 225° |
| 2026-05-04 12:10 | 53.35540 | -2.28069 | 233 ft | 18 kts | 225° |
| 2026-05-04 12:11 | 53.35422 | -2.28159 | 233 ft | 16 kts | 185° |
| 2026-05-04 12:11 | 53.35306 | -2.28210 | 234 ft | 19 kts | 204° |
| 2026-05-04 12:11 | 53.35200 | -2.28364 | 233 ft | 22 kts | 231° |
| 2026-05-04 12:11 | 53.35096 | -2.28581 | 233 ft | 25 kts | 231° |
| 2026-05-04 12:12 | 53.34977 | -2.28807 | 233 ft | 27 kts | 226° |
| 2026-05-04 12:12 | 53.34856 | -2.29017 | 233 ft | 26 kts | 226° |
| 2026-05-04 12:12 | 53.34758 | -2.29211 | 233 ft | 15 kts | 231° |
| 2026-05-04 12:12 | 53.34682 | -2.29327 | 233 ft | 9 kts | 204° |
| 2026-05-04 12:13 | 53.34673 | -2.29333 | 233 ft | 0 kts | 198° |
| 2026-05-04 12:14 | 53.34540 | -2.29286 | 233 ft | 10 kts | 139° |
| 2026-05-04 12:15 | 53.34551 | -2.29199 | 233 ft | 0 kts | 50° |
| 2026-05-04 12:15 | 53.34659 | -2.28977 | 234 ft | 63 kts | 51° |
| 2026-05-04 12:15 | 53.35086 | -2.28095 | 232 ft | 128 kts | 51° |
| 2026-05-04 12:16 | 53.35737 | -2.26748 | 481 ft | 154 kts | 50° |
| 2026-05-04 12:16 | 53.36410 | -2.25374 | 1265 ft | 152 kts | 51° |
| 2026-05-04 12:16 | 53.37071 | -2.24006 | 1879 ft | 157 kts | 52° |
| 2026-05-04 12:16 | 53.37568 | -2.22284 | 2268 ft | 178 kts | 82° |
| 2026-05-04 12:17 | 53.37363 | -2.20133 | 2591 ft | 203 kts | 120° |
| 2026-05-04 12:17 | 53.36297 | -2.18416 | 3055 ft | 228 kts | 147° |
| 2026-05-04 12:17 | 53.34838 | -2.17076 | 3599 ft | 252 kts | 163° |
| 2026-05-04 12:17 | 53.33055 | -2.16900 | 4446 ft | 263 kts | 186° |
| 2026-05-04 12:18 | 53.31218 | -2.17223 | 5467 ft | 268 kts | 186° |
| 2026-05-04 12:18 | 53.29346 | -2.17539 | 6507 ft | 272 kts | 186° |
| 2026-05-04 12:18 | 53.27456 | -2.17849 | 7479 ft | 276 kts | 186° |
| 2026-05-04 12:18 | 53.25528 | -2.18155 | 8437 ft | 280 kts | 186° |
| 2026-05-04 12:19 | 53.23601 | -2.18457 | 9384 ft | 284 kts | 186° |
| 2026-05-04 12:19 | 53.21596 | -2.18770 | 10279 ft | 291 kts | 186° |
| 2026-05-04 12:19 | 53.19524 | -2.19097 | 10626 ft | 314 kts | 186° |
| 2026-05-04 12:19 | 53.17281 | -2.19450 | 11058 ft | 331 kts | 186° |
| 2026-05-04 12:20 | 53.14949 | -2.19464 | 11774 ft | 338 kts | 174° |
| 2026-05-04 12:20 | 53.12630 | -2.18659 | 12566 ft | 343 kts | 162° |
| 2026-05-04 12:20 | 53.10405 | -2.17181 | 13377 ft | 347 kts | 158° |
| 2026-05-04 12:20 | 53.08164 | -2.15617 | 14163 ft | 351 kts | 158° |
| 2026-05-04 12:21 | 53.05900 | -2.14051 | 14892 ft | 354 kts | 158° |
| 2026-05-04 12:21 | 53.03612 | -2.12475 | 15614 ft | 357 kts | 158° |
| 2026-05-04 12:21 | 53.01340 | -2.10915 | 16299 ft | 361 kts | 158° |
| 2026-05-04 12:21 | 52.98972 | -2.09288 | 17009 ft | 364 kts | 158° |
| 2026-05-04 12:22 | 52.96651 | -2.07693 | 17700 ft | 368 kts | 158° |
| 2026-05-04 12:22 | 52.94280 | -2.06064 | 18408 ft | 371 kts | 158° |
| 2026-05-04 12:22 | 52.91882 | -2.04418 | 18896 ft | 375 kts | 158° |
| 2026-05-04 12:22 | 52.89472 | -2.02764 | 19041 ft | 375 kts | 158° |
| 2026-05-04 12:23 | 52.87025 | -2.01089 | 19078 ft | 385 kts | 158° |
| 2026-05-04 12:23 | 52.84540 | -1.99388 | 19074 ft | 388 kts | 158° |
| 2026-05-04 12:23 | 52.82043 | -1.97684 | 19078 ft | 388 kts | 158° |
| 2026-05-04 12:23 | 52.79543 | -1.95982 | 19084 ft | 388 kts | 158° |
| 2026-05-04 12:24 | 52.77083 | -1.94305 | 19080 ft | 388 kts | 158° |
| 2026-05-04 12:24 | 52.74591 | -1.92605 | 19078 ft | 388 kts | 158° |
| 2026-05-04 12:24 | 52.72105 | -1.90913 | 19077 ft | 387 kts | 158° |
| 2026-05-04 12:24 | 52.69610 | -1.89219 | 19074 ft | 387 kts | 158° |
| 2026-05-04 12:25 | 52.67123 | -1.87532 | 19085 ft | 387 kts | 158° |
| 2026-05-04 12:25 | 52.64628 | -1.85844 | 19080 ft | 387 kts | 159° |
| 2026-05-04 12:25 | 52.62138 | -1.84159 | 19068 ft | 387 kts | 158° |
| 2026-05-04 12:25 | 52.59645 | -1.82472 | 19076 ft | 387 kts | 158° |
| 2026-05-04 12:26 | 52.57149 | -1.80787 | 19074 ft | 387 kts | 158° |
| 2026-05-04 12:26 | 52.54662 | -1.79113 | 19073 ft | 387 kts | 158° |
| 2026-05-04 12:26 | 52.52164 | -1.77434 | 19076 ft | 387 kts | 159° |
| 2026-05-04 12:26 | 52.49705 | -1.75785 | 19076 ft | 387 kts | 158° |
| 2026-05-04 12:27 | 52.47215 | -1.74115 | 19074 ft | 387 kts | 158° |
| 2026-05-04 12:27 | 52.44726 | -1.72446 | 19076 ft | 387 kts | 159° |
| 2026-05-04 12:27 | 52.42239 | -1.70780 | 19076 ft | 387 kts | 158° |
| 2026-05-04 12:27 | 52.39746 | -1.69111 | 19082 ft | 387 kts | 158° |
| 2026-05-04 12:28 | 52.37264 | -1.67416 | 19081 ft | 387 kts | 155° |
| 2026-05-04 12:28 | 52.34935 | -1.65200 | 19081 ft | 387 kts | 145° |
| 2026-05-04 12:28 | 52.32857 | -1.62402 | 19077 ft | 388 kts | 140° |
| 2026-05-04 12:28 | 52.30848 | -1.59550 | 19076 ft | 388 kts | 140° |
| 2026-05-04 12:29 | 52.28780 | -1.56627 | 19074 ft | 387 kts | 140° |
| 2026-05-04 12:29 | 52.26768 | -1.53797 | 19075 ft | 387 kts | 140° |
| 2026-05-04 12:29 | 52.24727 | -1.50934 | 19070 ft | 387 kts | 140° |
| 2026-05-04 12:29 | 52.22752 | -1.48163 | 19074 ft | 387 kts | 140° |
| 2026-05-04 12:30 | 52.20706 | -1.45295 | 19072 ft | 387 kts | 140° |
| 2026-05-04 12:30 | 52.18666 | -1.42440 | 19076 ft | 387 kts | 140° |
| 2026-05-04 12:30 | 52.16624 | -1.39589 | 19073 ft | 387 kts | 140° |
| 2026-05-04 12:30 | 52.14588 | -1.36753 | 18986 ft | 382 kts | 140° |
| 2026-05-04 12:31 | 52.12624 | -1.34015 | 18745 ft | 370 kts | 140° |
| 2026-05-04 12:31 | 52.10670 | -1.31290 | 18505 ft | 360 kts | 140° |
| 2026-05-04 12:31 | 52.08815 | -1.28709 | 18261 ft | 356 kts | 140° |
| 2026-05-04 12:31 | 52.06934 | -1.26091 | 17985 ft | 353 kts | 140° |
| 2026-05-04 12:32 | 52.05082 | -1.23512 | 17536 ft | 348 kts | 141° |
| 2026-05-04 12:32 | 52.01447 | -1.18479 | 16575 ft | 342 kts | 141° |
| 2026-05-04 12:32 | 51.99632 | -1.15976 | 16073 ft | 340 kts | 141° |
| 2026-05-04 12:33 | 51.97834 | -1.13502 | 15590 ft | 339 kts | 141° |
| 2026-05-04 12:33 | 51.96039 | -1.11030 | 15153 ft | 337 kts | 141° |
| 2026-05-04 12:33 | 51.94245 | -1.08551 | 14553 ft | 342 kts | 141° |
| 2026-05-04 12:33 | 51.92453 | -1.06078 | 13942 ft | 331 kts | 141° |
| 2026-05-04 12:34 | 51.90767 | -1.03753 | 13816 ft | 306 kts | 141° |
| 2026-05-04 12:34 | 51.89200 | -1.01596 | 13672 ft | 284 kts | 141° |
| 2026-05-04 12:34 | 51.87748 | -0.99598 | 13325 ft | 273 kts | 141° |
| 2026-05-04 12:34 | 51.86313 | -0.97623 | 12812 ft | 269 kts | 140° |
| 2026-05-04 12:35 | 51.85086 | -0.95364 | 12359 ft | 266 kts | 124° |
| 2026-05-04 12:35 | 51.84224 | -0.92726 | 11970 ft | 265 kts | 118° |
| 2026-05-04 12:35 | 51.83413 | -0.90065 | 11612 ft | 264 kts | 118° |
| 2026-05-04 12:35 | 51.82601 | -0.87415 | 11271 ft | 264 kts | 118° |
| 2026-05-04 12:36 | 51.81781 | -0.84743 | 10923 ft | 266 kts | 118° |
| 2026-05-04 12:36 | 51.80958 | -0.82063 | 10623 ft | 265 kts | 118° |
| 2026-05-04 12:36 | 51.80139 | -0.79393 | 10288 ft | 266 kts | 118° |
| 2026-05-04 12:36 | 51.79331 | -0.76751 | 9920 ft | 260 kts | 118° |
| 2026-05-04 12:37 | 51.78535 | -0.74151 | 9539 ft | 257 kts | 118° |
| 2026-05-04 12:37 | 51.77754 | -0.71607 | 9210 ft | 255 kts | 118° |
| 2026-05-04 12:37 | 51.76966 | -0.69052 | 8869 ft | 255 kts | 118° |
| 2026-05-04 12:37 | 51.76172 | -0.66492 | 8531 ft | 256 kts | 118° |
| 2026-05-04 12:38 | 51.75375 | -0.63924 | 8218 ft | 256 kts | 118° |
| 2026-05-04 12:38 | 51.74651 | -0.61585 | 7944 ft | 254 kts | 118° |
| 2026-05-04 12:38 | 51.73872 | -0.59061 | 7578 ft | 248 kts | 118° |
| 2026-05-04 12:38 | 51.73107 | -0.56576 | 7268 ft | 246 kts | 118° |
| 2026-05-04 12:39 | 51.72267 | -0.54201 | 7078 ft | 243 kts | 128° |
| 2026-05-04 12:39 | 51.71268 | -0.52001 | 7068 ft | 244 kts | 128° |
| 2026-05-04 12:39 | 51.70267 | -0.49785 | 7073 ft | 244 kts | 128° |
| 2026-05-04 12:39 | 51.69278 | -0.47595 | 7073 ft | 245 kts | 128° |
| 2026-05-04 12:40 | 51.68280 | -0.45376 | 7077 ft | 244 kts | 128° |
| 2026-05-04 12:40 | 51.67281 | -0.43155 | 7077 ft | 244 kts | 128° |
| 2026-05-04 12:40 | 51.66281 | -0.40943 | 7080 ft | 244 kts | 128° |
| 2026-05-04 12:40 | 51.65279 | -0.38732 | 7082 ft | 244 kts | 128° |
| 2026-05-04 12:41 | 51.64287 | -0.36545 | 7082 ft | 245 kts | 128° |
| 2026-05-04 12:41 | 51.63283 | -0.34328 | 7080 ft | 245 kts | 128° |
| 2026-05-04 12:41 | 51.62279 | -0.32107 | 7099 ft | 245 kts | 128° |
| 2026-05-04 12:41 | 51.61286 | -0.29918 | 6985 ft | 247 kts | 128° |
| 2026-05-04 12:42 | 51.60249 | -0.27653 | 6617 ft | 248 kts | 128° |
| 2026-05-04 12:42 | 51.59226 | -0.25432 | 6341 ft | 246 kts | 129° |
| 2026-05-04 12:42 | 51.58227 | -0.23267 | 6077 ft | 244 kts | 128° |
| 2026-05-04 12:42 | 51.57211 | -0.21066 | 5644 ft | 249 kts | 128° |
| 2026-05-04 12:43 | 51.56167 | -0.18792 | 4970 ft | 255 kts | 127° |
| 2026-05-04 12:43 | 51.55133 | -0.16535 | 4631 ft | 244 kts | 127° |
| 2026-05-04 12:43 | 51.54166 | -0.14425 | 4483 ft | 225 kts | 128° |
| 2026-05-04 12:43 | 51.53051 | -0.12864 | 4239 ft | 209 kts | 160° |
| 2026-05-04 12:44 | 51.51671 | -0.12453 | 4040 ft | 196 kts | 178° |
| 2026-05-04 12:44 | 51.50325 | -0.12424 | 3999 ft | 192 kts | 182° |
| 2026-05-04 12:44 | 51.49080 | -0.13034 | 3999 ft | 190 kts | 218° |
| 2026-05-04 12:44 | 51.48185 | -0.14612 | 3801 ft | 195 kts | 241° |
| 2026-05-04 12:45 | 51.47809 | -0.16719 | 3427 ft | 199 kts | 269° |
| 2026-05-04 12:45 | 51.47804 | -0.18943 | 3127 ft | 201 kts | 271° |
| 2026-05-04 12:45 | 51.47804 | -0.21178 | 2863 ft | 199 kts | 270° |
| 2026-05-04 12:45 | 51.47802 | -0.23321 | 2599 ft | 189 kts | 271° |
| 2026-05-04 12:46 | 51.47800 | -0.25366 | 2325 ft | 177 kts | 271° |
| 2026-05-04 12:46 | 51.47798 | -0.27307 | 2102 ft | 171 kts | 271° |
| 2026-05-04 12:46 | 51.47795 | -0.29201 | 1874 ft | 169 kts | 272° |
| 2026-05-04 12:46 | 51.47792 | -0.31076 | 1657 ft | 168 kts | 272° |
| 2026-05-04 12:47 | 51.47789 | -0.32938 | 1441 ft | 166 kts | 271° |
| 2026-05-04 12:47 | 51.47786 | -0.34805 | 1196 ft | 167 kts | 271° |
| 2026-05-04 12:47 | 51.47781 | -0.36598 | 960 ft | 151 kts | 271° |
| 2026-05-04 12:47 | 51.47777 | -0.38216 | 727 ft | 142 kts | 271° |
| 2026-05-04 12:48 | 51.47776 | -0.39777 | 555 ft | 138 kts | 271° |
| 2026-05-04 12:48 | 51.47771 | -0.41315 | 388 ft | 137 kts | 272° |
| 2026-05-04 12:48 | 51.47769 | -0.42837 | 217 ft | 137 kts | 272° |
| 2026-05-04 12:48 | 51.47764 | -0.44325 | 89 ft | 126 kts | 271° |
| 2026-05-04 12:49 | 51.47762 | -0.45479 | 86 ft | 79 kts | 269° |
| 2026-05-04 12:49 | 51.47764 | -0.46139 | 87 ft | 47 kts | 270° |
| 2026-05-04 12:49 | 51.47730 | -0.46622 | 90 ft | 35 kts | 246° |
| 2026-05-04 12:49 | 51.47660 | -0.46837 | 91 ft | 17 kts | 234° |
| 2026-05-04 12:50 | 51.47582 | -0.46956 | 88 ft | 16 kts | 256° |
| 2026-05-04 12:50 | 51.47582 | -0.47148 | 91 ft | 19 kts | 269° |
| 2026-05-04 12:50 | 51.47581 | -0.47372 | 91 ft | 21 kts | 269° |
| 2026-05-04 12:50 | 51.47580 | -0.47604 | 90 ft | 20 kts | 269° |
| 2026-05-04 12:51 | 51.47580 | -0.47818 | 89 ft | 15 kts | 270° |
| 2026-05-04 12:51 | 51.47579 | -0.47995 | 89 ft | 17 kts | 269° |
| 2026-05-04 12:51 | 51.47578 | -0.48199 | 89 ft | 20 kts | 269° |
| 2026-05-04 12:51 | 51.47577 | -0.48442 | 87 ft | 23 kts | 270° |
| 2026-05-04 12:52 | 51.47576 | -0.48701 | 87 ft | 21 kts | 269° |
| 2026-05-04 12:52 | 51.47576 | -0.48885 | 87 ft | 12 kts | 270° |
| 2026-05-04 12:52 | 51.47519 | -0.48958 | 88 ft | 13 kts | 175° |
| 2026-05-04 12:52 | 51.47446 | -0.48956 | 89 ft | 7 kts | 180° |
| 2026-05-04 12:53 | 51.47425 | -0.48956 | 87 ft | 1 kts | 180° |
| 2026-05-04 12:53 | 51.47417 | -0.48956 | 89 ft | 0 kts | 180° |